Time;durP1;ratioP1;P1;durP2;ratioP2;P2;SDS_P1;SDS_P2;PMS_P1;PMS_P2;Temp;Humidity;BMP_temperature;BMP_pressure;BME280_temperature;BME280_humidity;BME280_pressure;Samples;Min_cycle;Max_cycle;Signal;HPM_P1;HPM_P2
2024/01/15 00:01:44;;;;;;;12.82;5.80;;;3.40;99.90;;;;;;5039766;28;20516;-63
2024/01/15 00:04:10;;;;;;;13.30;6.63;;;3.50;99.90;;;;;;5043357;28;20037;-63
2024/01/15 00:06:35;;;;;;;15.60;6.80;;;3.30;99.90;;;;;;5040494;28;20040;-63
2024/01/15 00:09:01;;;;;;;12.32;6.70;;;3.20;99.90;;;;;;5043081;28;20541;-63
2024/01/15 00:11:27;;;;;;;14.18;6.53;;;3.10;99.90;;;;;;5044002;28;20386;-63
2024/01/15 00:13:53;;;;;;;12.98;6.70;;;3.10;99.90;;;;;;5045410;28;20045;-63
2024/01/15 00:16:19;;;;;;;15.35;6.63;;;3.00;99.90;;;;;;5043154;28;20037;-63
2024/01/15 00:18:44;;;;;;;12.85;6.47;;;3.00;99.90;;;;;;5036876;28;20041;-63
2024/01/15 00:21:10;;;;;;;14.00;7.05;;;3.10;99.90;;;;;;5039923;28;20785;-63
2024/01/15 00:23:36;;;;;;;15.95;7.18;;;3.20;99.90;;;;;;5041685;28;20090;-63
2024/01/15 00:26:02;;;;;;;14.30;6.22;;;3.30;99.90;;;;;;5044522;28;20136;-63
2024/01/15 00:28:28;;;;;;;13.13;6.68;;;3.10;99.90;;;;;;5041027;28;20040;-62
2024/01/15 00:30:53;;;;;;;12.93;6.47;;;3.00;99.90;;;;;;5045181;28;20594;-63
2024/01/15 00:33:19;;;;;;;14.18;6.05;;;2.90;99.90;;;;;;5038846;28;20029;-63
2024/01/15 00:35:45;;;;;;;11.50;5.78;;;3.10;99.90;;;;;;5037343;28;20041;-63
2024/01/15 00:38:11;;;;;;;13.02;7.25;;;3.20;99.90;;;;;;5041571;28;20765;-63
2024/01/15 00:40:37;;;;;;;9.88;5.22;;;3.20;99.90;;;;;;5037994;28;20048;-63
2024/01/15 00:43:03;;;;;;;10.85;5.97;;;3.30;99.90;;;;;;5041582;28;20429;-63
2024/01/15 00:45:29;;;;;;;13.77;6.13;;;3.40;99.90;;;;;;5040419;28;20291;-64
2024/01/15 00:47:56;;;;;;;13.77;6.43;;;3.40;99.90;;;;;;5043815;28;20107;-63
2024/01/15 00:50:22;;;;;;;11.57;6.75;;;3.40;99.90;;;;;;5037775;28;20485;-63
2024/01/15 00:52:47;;;;;;;13.35;5.03;;;3.30;99.90;;;;;;5037055;28;20035;-63
2024/01/15 00:55:13;;;;;;;11.02;6.15;;;3.20;99.90;;;;;;5039376;28;20109;-63
2024/01/15 00:57:40;;;;;;;10.10;5.35;;;3.20;99.90;;;;;;5040950;28;20033;-63
2024/01/15 01:00:06;;;;;;;12.20;6.22;;;3.40;99.90;;;;;;5041304;28;20030;-63
2024/01/15 01:02:32;;;;;;;12.43;6.15;;;3.30;99.90;;;;;;5044733;28;20032;-63
2024/01/15 01:04:57;;;;;;;12.80;6.05;;;3.20;99.90;;;;;;5043571;28;20889;-64
2024/01/15 01:07:23;;;;;;;10.77;5.75;;;3.20;99.90;;;;;;5045357;28;20035;-63
2024/01/15 01:09:50;;;;;;;12.85;6.18;;;3.20;99.90;;;;;;5035898;28;20029;-63
2024/01/15 01:12:16;;;;;;;13.85;6.47;;;3.30;99.90;;;;;;5038646;28;20028;-63
2024/01/15 01:14:42;;;;;;;12.90;5.63;;;3.40;99.90;;;;;;5042037;28;20107;-63
2024/01/15 01:17:08;;;;;;;13.30;6.35;;;3.30;99.90;;;;;;5040959;28;20124;-62
2024/01/15 01:19:34;;;;;;;14.00;5.80;;;3.20;99.90;;;;;;5042082;28;20041;-63
2024/01/15 01:21:59;;;;;;;14.15;6.35;;;3.10;99.90;;;;;;5038826;28;20048;-63
2024/01/15 01:24:25;;;;;;;13.18;6.68;;;3.20;99.90;;;;;;5044180;28;20090;-63
2024/01/15 01:26:51;;;;;;;11.93;6.15;;;3.30;99.90;;;;;;5045384;28;20033;-63
2024/01/15 01:29:17;;;;;;;16.08;7.13;;;3.30;99.90;;;;;;5041828;28;20029;-63
2024/01/15 01:31:44;;;;;;;12.02;5.97;;;3.20;99.90;;;;;;5039479;28;20028;-63
2024/01/15 01:34:10;;;;;;;14.73;7.15;;;3.20;99.90;;;;;;5040331;28;20068;-63
2024/01/15 01:36:36;;;;;;;15.98;8.15;;;3.20;99.90;;;;;;5042087;28;20033;-63
2024/01/15 01:39:02;;;;;;;15.27;7.55;;;3.20;99.90;;;;;;5042388;28;20381;-63
2024/01/15 01:41:27;;;;;;;11.82;6.57;;;3.20;99.90;;;;;;5044409;28;20461;-63
2024/01/15 01:43:53;;;;;;;14.70;7.20;;;3.20;99.90;;;;;;5039993;28;20123;-63
2024/01/15 01:46:19;;;;;;;12.73;6.40;;;3.10;99.90;;;;;;5037131;28;20046;-63
2024/01/15 01:48:45;;;;;;;11.48;6.10;;;3.00;99.90;;;;;;5038767;28;20051;-63
2024/01/15 01:51:11;;;;;;;10.77;6.07;;;3.10;99.90;;;;;;5042046;28;20064;-63
2024/01/15 01:53:38;;;;;;;14.00;6.70;;;3.30;99.90;;;;;;5039357;28;20561;-63
2024/01/15 01:56:04;;;;;;;10.45;5.82;;;3.40;99.90;;;;;;5041981;28;20477;-62
2024/01/15 01:58:32;;;;;;;10.95;5.18;;;3.40;99.90;;;;;;5044655;28;20502;-63
2024/01/15 02:00:58;;;;;;;12.48;5.50;;;3.50;99.90;;;;;;5043600;28;20512;-63
2024/01/15 02:03:26;;;;;;;11.85;6.38;;;3.60;99.90;;;;;;5037848;28;20394;-63
2024/01/15 02:05:53;;;;;;;13.70;6.13;;;3.70;99.90;;;;;;5039762;28;20125;-63
2024/01/15 02:08:19;;;;;;;11.02;6.15;;;3.60;99.90;;;;;;5040160;28;20033;-63
2024/01/15 02:10:45;;;;;;;12.55;6.05;;;3.60;99.90;;;;;;5039577;28;20574;-64
2024/01/15 02:13:11;;;;;;;11.57;5.18;;;3.60;99.90;;;;;;5042751;28;20056;-63
2024/01/15 02:15:37;;;;;;;11.60;5.25;;;3.70;99.90;;;;;;5043031;28;20603;-63
2024/01/15 02:18:04;;;;;;;14.77;6.07;;;3.60;99.90;;;;;;5040473;28;20060;-63
2024/01/15 02:20:30;;;;;;;10.45;5.50;;;3.60;99.90;;;;;;5033039;28;20082;-62
2024/01/15 02:23:02;;;;;;;14.57;7.10;;;3.50;99.90;;;;;;5031224;28;20037;-63
2024/01/15 02:25:27;;;;;;;11.05;5.68;;;3.30;99.90;;;;;;5040777;28;20032;-63
2024/01/15 02:27:53;;;;;;;11.93;5.88;;;3.20;99.90;;;;;;5038707;28;20033;-63
2024/01/15 02:30:19;;;;;;;14.20;6.03;;;3.10;99.90;;;;;;5041905;28;20031;-63
2024/01/15 02:32:46;;;;;;;10.73;5.63;;;2.80;99.90;;;;;;5044498;28;20033;-63
2024/01/15 02:35:11;;;;;;;13.40;6.03;;;2.50;99.90;;;;;;5047764;28;20029;-63
2024/01/15 02:37:37;;;;;;;9.80;5.55;;;2.60;99.90;;;;;;5044061;28;20036;-63
2024/01/15 02:40:03;;;;;;;13.02;6.35;;;2.70;99.90;;;;;;5039159;28;20088;-63
2024/01/15 02:42:29;;;;;;;11.48;5.45;;;2.60;99.90;;;;;;5043314;28;20634;-63
2024/01/15 02:44:54;;;;;;;13.15;6.35;;;2.60;99.90;;;;;;5041853;28;20037;-63
2024/01/15 02:47:20;;;;;;;14.88;5.20;;;2.60;99.90;;;;;;5041023;28;20026;-63
2024/01/15 02:49:46;;;;;;;11.32;5.40;;;2.70;99.90;;;;;;5045591;28;20036;-63
2024/01/15 02:52:12;;;;;;;11.38;5.07;;;2.70;99.90;;;;;;5044197;28;20021;-63
2024/01/15 02:54:37;;;;;;;9.60;5.22;;;2.60;99.90;;;;;;5043815;28;20377;-63
2024/01/15 02:57:03;;;;;;;14.32;5.28;;;2.60;99.90;;;;;;5038192;28;20041;-63
2024/01/15 02:59:29;;;;;;;13.10;5.97;;;2.70;99.90;;;;;;5045292;28;20120;-63
2024/01/15 03:01:54;;;;;;;11.60;5.43;;;2.70;99.90;;;;;;5040948;28;20070;-63
2024/01/15 03:04:20;;;;;;;11.40;4.85;;;2.50;99.90;;;;;;5038099;28;20029;-63
2024/01/15 03:06:46;;;;;;;12.98;5.35;;;2.40;99.90;;;;;;5044037;28;20067;-63
2024/01/15 03:09:12;;;;;;;7.80;4.13;;;2.30;99.90;;;;;;5046439;28;20039;-63
2024/01/15 03:11:39;;;;;;;9.30;4.57;;;2.40;99.90;;;;;;5047000;28;20040;-63
2024/01/15 03:14:04;;;;;;;10.07;4.75;;;2.50;99.90;;;;;;5037189;28;20029;-63
2024/01/15 03:16:30;;;;;;;10.35;4.60;;;2.50;99.90;;;;;;5040315;28;20037;-63
2024/01/15 03:18:56;;;;;;;7.22;3.90;;;2.60;99.90;;;;;;5039833;28;20041;-63
2024/01/15 03:21:22;;;;;;;12.35;4.43;;;2.50;99.90;;;;;;5043856;28;20048;-63
2024/01/15 03:23:47;;;;;;;9.77;4.35;;;2.40;99.90;;;;;;5041132;28;20044;-64
2024/01/15 03:26:13;;;;;;;9.00;4.32;;;2.50;99.90;;;;;;5046770;28;20025;-63
2024/01/15 03:28:39;;;;;;;12.77;4.95;;;2.60;99.90;;;;;;5047101;28;20052;-63
2024/01/15 03:31:05;;;;;;;7.57;3.50;;;2.70;99.90;;;;;;5040007;28;20105;-64
2024/01/15 03:33:30;;;;;;;11.10;4.13;;;2.90;99.90;;;;;;5041102;28;20127;-63
2024/01/15 03:35:56;;;;;;;9.52;4.88;;;2.80;99.90;;;;;;5039406;28;20740;-63
2024/01/15 03:38:23;;;;;;;6.90;3.67;;;2.90;99.90;;;;;;5044634;28;20033;-63
2024/01/15 03:40:49;;;;;;;7.32;4.20;;;2.90;99.90;;;;;;5044391;28;20099;-62
2024/01/15 03:43:14;;;;;;;14.23;3.90;;;3.00;99.90;;;;;;5042293;28;20405;-63
2024/01/15 03:45:40;;;;;;;11.10;4.45;;;3.00;99.90;;;;;;5041520;28;20033;-63
2024/01/15 03:48:06;;;;;;;8.52;4.03;;;2.90;99.90;;;;;;5038603;28;20032;-64
2024/01/15 03:50:32;;;;;;;8.05;3.42;;;2.70;99.90;;;;;;5036198;28;20037;-63
2024/01/15 03:52:57;;;;;;;7.88;3.60;;;2.70;99.90;;;;;;5038490;28;20517;-63
2024/01/15 03:55:23;;;;;;;9.45;3.65;;;2.70;99.90;;;;;;5044602;28;20025;-63
2024/01/15 03:57:49;;;;;;;8.15;3.47;;;2.50;99.90;;;;;;5041251;28;20045;-63
2024/01/15 04:00:17;;;;;;;7.05;3.60;;;2.50;99.90;;;;;;5045513;28;20033;-63
2024/01/15 04:02:44;;;;;;;8.25;3.00;;;2.60;99.90;;;;;;5045582;28;20366;-63
2024/01/15 04:05:10;;;;;;;7.60;2.88;;;2.60;99.90;;;;;;5039120;28;20048;-63
2024/01/15 04:07:35;;;;;;;5.75;2.70;;;2.70;99.90;;;;;;5039724;28;20102;-63
2024/01/15 04:10:01;;;;;;;5.53;2.72;;;2.80;99.90;;;;;;5037886;28;20405;-64
2024/01/15 04:12:27;;;;;;;9.10;3.08;;;2.80;99.90;;;;;;5041798;28;20036;-63
2024/01/15 04:14:53;;;;;;;5.00;2.50;;;2.70;99.90;;;;;;5041020;28;20436;-63
2024/01/15 04:17:18;;;;;;;7.30;3.45;;;2.70;99.90;;;;;;5040378;28;20036;-64
2024/01/15 04:19:44;;;;;;;12.30;2.95;;;2.80;99.90;;;;;;5044168;28;20520;-63
2024/01/15 04:22:10;;;;;;;8.15;2.45;;;2.60;99.90;;;;;;5042260;28;20040;-62
2024/01/15 04:24:36;;;;;;;7.40;2.85;;;2.50;99.90;;;;;;5039161;28;20037;-63
2024/01/15 04:27:01;;;;;;;7.90;2.88;;;2.50;99.90;;;;;;5036884;28;20045;-63
2024/01/15 04:29:27;;;;;;;6.43;1.90;;;2.60;99.90;;;;;;5041076;28;20025;-63
2024/01/15 04:31:53;;;;;;;5.10;2.15;;;2.70;99.90;;;;;;5040381;28;20095;-63
2024/01/15 04:34:19;;;;;;;4.40;2.10;;;2.80;99.90;;;;;;5044683;28;20427;-63
2024/01/15 04:36:44;;;;;;;6.43;2.20;;;2.80;99.90;;;;;;5041490;28;20037;-63
2024/01/15 04:39:11;;;;;;;9.35;2.50;;;2.90;99.90;;;;;;5045060;28;20025;-63
2024/01/15 04:41:37;;;;;;;6.30;2.50;;;2.90;99.90;;;;;;5042267;28;20083;-63
2024/01/15 04:44:03;;;;;;;6.35;1.90;;;3.10;99.90;;;;;;5037063;28;20037;-63
2024/01/15 04:46:29;;;;;;;7.28;2.28;;;3.00;99.90;;;;;;5040875;28;20068;-63
2024/01/15 04:48:55;;;;;;;5.10;2.40;;;3.00;99.90;;;;;;5043073;28;20119;-63
2024/01/15 04:51:20;;;;;;;6.90;2.10;;;2.90;99.90;;;;;;5040662;28;20036;-63
2024/01/15 04:53:46;;;;;;;9.23;2.17;;;2.90;99.90;;;;;;5042614;28;20492;-63
2024/01/15 04:56:12;;;;;;;9.57;1.90;;;2.70;99.90;;;;;;5044675;28;20033;-63
2024/01/15 04:58:38;;;;;;;7.65;2.95;;;2.70;99.90;;;;;;5037721;28;20039;-63
2024/01/15 05:01:03;;;;;;;5.65;1.48;;;2.70;99.90;;;;;;5038978;28;20040;-63
2024/01/15 05:03:29;;;;;;;9.45;1.90;;;2.70;99.90;;;;;;5040126;28;20033;-63
2024/01/15 05:05:55;;;;;;;10.15;1.58;;;2.70;99.90;;;;;;5038570;28;20833;-63
2024/01/15 05:08:21;;;;;;;6.35;1.48;;;2.80;99.90;;;;;;5042222;28;20025;-63
2024/01/15 05:10:47;;;;;;;10.18;2.33;;;2.80;99.90;;;;;;5043333;28;20397;-62
2024/01/15 05:13:13;;;;;;;6.60;2.10;;;3.00;99.90;;;;;;5044736;28;20041;-63
2024/01/15 05:15:39;;;;;;;5.28;2.38;;;2.90;99.90;;;;;;5041318;28;20083;-63
2024/01/15 05:18:05;;;;;;;6.68;2.03;;;3.00;99.90;;;;;;5034721;28;20531;-63
2024/01/15 05:20:31;;;;;;;5.68;2.05;;;3.00;99.90;;;;;;5039419;28;20067;-63
2024/01/15 05:22:56;;;;;;;6.20;2.00;;;3.00;99.90;;;;;;5034107;28;20104;-63
2024/01/15 05:25:22;;;;;;;6.60;1.83;;;3.00;99.90;;;;;;5043099;28;20437;-63
2024/01/15 05:27:48;;;;;;;3.13;1.60;;;3.00;99.90;;;;;;5041133;28;20041;-63
2024/01/15 05:30:15;;;;;;;7.15;2.00;;;3.20;99.90;;;;;;5043610;28;20104;-63
2024/01/15 05:32:40;;;;;;;9.60;1.92;;;3.00;99.90;;;;;;5044369;28;20131;-63
2024/01/15 05:35:06;;;;;;;4.55;1.52;;;3.00;99.90;;;;;;5034655;28;20132;-63
2024/01/15 05:37:32;;;;;;;7.57;1.90;;;3.10;99.90;;;;;;5038991;28;20022;-63
2024/01/15 05:39:58;;;;;;;7.60;2.03;;;3.20;99.90;;;;;;5031749;28;20030;-63
2024/01/15 05:42:24;;;;;;;7.07;1.55;;;3.30;99.90;;;;;;5038768;28;20033;-63
2024/01/15 05:44:50;;;;;;;4.32;1.40;;;3.40;99.90;;;;;;5040692;28;20040;-63
2024/01/15 05:47:15;;;;;;;13.13;2.03;;;3.40;99.90;;;;;;5040383;28;20064;-63
2024/01/15 05:49:41;;;;;;;5.78;1.40;;;3.20;99.90;;;;;;5043893;28;20106;-63
2024/01/15 05:52:07;;;;;;;6.85;1.48;;;3.30;99.90;;;;;;5036202;28;20037;-63
2024/01/15 05:54:32;;;;;;;4.22;1.25;;;3.30;99.90;;;;;;5038502;28;20024;-63
2024/01/15 05:56:58;;;;;;;2.60;1.08;;;3.40;99.90;;;;;;5036577;28;20631;-63
2024/01/15 05:59:25;;;;;;;4.38;1.45;;;3.50;99.90;;;;;;5040978;28;20500;-63
2024/01/15 06:01:51;;;;;;;4.70;2.17;;;3.50;99.90;;;;;;5035251;28;20065;-63
2024/01/15 06:04:16;;;;;;;4.60;1.20;;;3.50;99.90;;;;;;5044085;28;20532;-63
2024/01/15 06:06:42;;;;;;;3.72;1.38;;;3.40;99.90;;;;;;5044151;28;20511;-63
2024/01/15 06:09:08;;;;;;;3.70;1.15;;;3.40;99.90;;;;;;5041307;28;20501;-63
2024/01/15 06:11:34;;;;;;;5.18;1.38;;;3.20;99.90;;;;;;5042326;28;20025;-63
2024/01/15 06:14:00;;;;;;;8.48;1.60;;;3.20;99.90;;;;;;5040609;28;20141;-62
2024/01/15 06:16:26;;;;;;;5.13;1.60;;;3.20;99.90;;;;;;5038331;28;20056;-63
2024/01/15 06:18:52;;;;;;;12.50;0.90;;;3.20;99.90;;;;;;5042170;28;20037;-63
2024/01/15 06:21:18;;;;;;;8.88;1.77;;;3.30;99.90;;;;;;5042740;28;20535;-63
2024/01/15 06:23:43;;;;;;;6.03;1.70;;;3.30;99.90;;;;;;5047518;28;20033;-62
2024/01/15 06:26:12;;;;;;;2.70;1.30;;;3.20;99.90;;;;;;5044685;28;20175;-63
2024/01/15 06:28:38;;;;;;;8.63;1.77;;;3.20;99.90;;;;;;5041714;28;20025;-63
2024/01/15 06:31:05;;;;;;;3.22;1.40;;;3.30;99.90;;;;;;5046048;28;20490;-63
2024/01/15 06:33:31;;;;;;;3.33;1.10;;;3.30;99.90;;;;;;5043525;28;20087;-63
2024/01/15 06:35:57;;;;;;;2.92;1.40;;;3.40;99.90;;;;;;5045760;28;20477;-63
2024/01/15 06:38:23;;;;;;;10.65;2.15;;;3.40;99.90;;;;;;5043793;28;20037;-63
2024/01/15 06:40:49;;;;;;;5.97;3.53;;;3.20;99.90;;;;;;5046225;28;20037;-63
2024/01/15 06:43:17;;;;;;;9.95;3.83;;;3.10;99.90;;;;;;5044885;28;20066;-63
2024/01/15 06:45:44;;;;;;;10.35;2.47;;;3.00;99.90;;;;;;5040631;28;20395;-63
2024/01/15 06:48:12;;;;;;;7.75;2.75;;;3.00;99.90;;;;;;5035659;28;20733;-63
2024/01/15 06:50:38;;;;;;;6.60;2.13;;;3.20;99.90;;;;;;5044886;28;20085;-63
2024/01/15 06:53:04;;;;;;;4.43;1.10;;;3.20;99.90;;;;;;5038012;28;20053;-63
2024/01/15 06:55:29;;;;;;;9.68;1.80;;;3.20;99.90;;;;;;5045200;28;20060;-62
2024/01/15 06:57:55;;;;;;;10.45;1.63;;;3.20;99.90;;;;;;5042608;28;20033;-63
2024/01/15 07:00:21;;;;;;;9.30;1.27;;;3.30;99.90;;;;;;5047096;28;20032;-62
2024/01/15 07:02:46;;;;;;;7.97;1.52;;;3.20;99.90;;;;;;5038927;28;20041;-63
2024/01/15 07:05:12;;;;;;;4.00;1.00;;;3.20;99.90;;;;;;5039110;28;20033;-63
2024/01/15 07:07:38;;;;;;;5.60;1.08;;;3.30;99.90;;;;;;5042258;28;20059;-63
2024/01/15 07:10:05;;;;;;;5.50;1.58;;;3.20;99.90;;;;;;5041372;28;20025;-63
2024/01/15 07:12:31;;;;;;;6.28;1.27;;;3.30;99.90;;;;;;5044606;28;20833;-62
2024/01/15 07:14:57;;;;;;;8.00;1.40;;;3.10;99.90;;;;;;5044560;28;20071;-62
2024/01/15 07:17:22;;;;;;;6.43;1.40;;;3.20;99.90;;;;;;5046061;28;20048;-63
2024/01/15 07:19:48;;;;;;;8.85;1.58;;;3.30;99.90;;;;;;5046044;28;20423;-63
2024/01/15 07:22:17;;;;;;;4.82;0.90;;;3.50;99.90;;;;;;5046835;28;20025;-63
2024/01/15 07:24:43;;;;;;;4.15;1.30;;;3.60;99.90;;;;;;5045906;28;20400;-63
2024/01/15 07:27:09;;;;;;;7.78;2.00;;;3.70;99.90;;;;;;5043115;28;20481;-63
2024/01/15 07:29:38;;;;;;;8.13;1.85;;;3.80;99.90;;;;;;5040208;28;20027;-63
2024/01/15 07:32:04;;;;;;;5.95;1.30;;;3.80;99.90;;;;;;5044251;28;20021;-62
2024/01/15 07:34:30;;;;;;;6.47;1.38;;;3.60;99.90;;;;;;5046443;28;20067;-63
2024/01/15 07:36:57;;;;;;;11.18;2.33;;;3.50;99.90;;;;;;5041300;28;20771;-63
2024/01/15 07:39:24;;;;;;;12.93;2.08;;;3.50;99.90;;;;;;5039054;28;20061;-62
2024/01/15 07:41:51;;;;;;;4.03;1.92;;;3.30;99.90;;;;;;5040590;28;20503;-63
2024/01/15 07:44:17;;;;;;;7.63;1.67;;;3.30;99.90;;;;;;5042113;28;20032;-65
2024/01/15 07:46:48;;;;;;;9.13;1.63;;;3.20;99.90;;;;;;5024165;28;20059;-63
2024/01/15 07:49:14;;;;;;;9.65;1.42;;;3.30;99.90;;;;;;5044476;28;20542;-63
2024/01/15 07:51:40;;;;;;;8.60;1.60;;;3.40;99.90;;;;;;5046434;28;20029;-63
2024/01/15 07:54:07;;;;;;;6.93;1.15;;;3.40;99.90;;;;;;5042977;28;20053;-63
2024/01/15 07:56:33;;;;;;;8.20;2.10;;;3.30;99.90;;;;;;5040116;28;20395;-63
2024/01/15 07:58:59;;;;;;;6.82;1.92;;;3.30;99.90;;;;;;5037426;28;20087;-63
2024/01/15 08:01:25;;;;;;;6.05;1.30;;;3.40;99.90;;;;;;5040555;28;20052;-63
2024/01/15 08:03:52;;;;;;;7.53;2.40;;;3.50;99.90;;;;;;5041606;28;20613;-63
2024/01/15 08:06:17;;;;;;;6.45;1.77;;;3.40;99.90;;;;;;5044452;28;20103;-63
2024/01/15 08:08:43;;;;;;;4.75;2.30;;;3.50;99.90;;;;;;5040442;28;20781;-64
2024/01/15 08:11:09;;;;;;;6.35;1.17;;;3.50;99.90;;;;;;5042403;28;20044;-61
2024/01/15 08:13:35;;;;;;;7.88;1.40;;;3.70;99.90;;;;;;5039306;28;20072;-63
2024/01/15 08:16:01;;;;;;;2.85;0.90;;;3.70;99.90;;;;;;5036891;28;20039;-62
2024/01/15 08:18:27;;;;;;;8.23;1.65;;;3.90;99.90;;;;;;5038918;28;20040;-61
2024/01/15 08:20:53;;;;;;;6.50;1.75;;;3.90;99.90;;;;;;5041224;28;20033;-61
2024/01/15 08:23:19;;;;;;;14.07;2.97;;;4.00;99.90;;;;;;5043168;28;20029;-61
2024/01/15 08:25:45;;;;;;;7.22;2.25;;;3.80;99.90;;;;;;5040815;28;20136;-61
2024/01/15 08:28:11;;;;;;;9.00;1.83;;;3.80;99.90;;;;;;5041759;28;20090;-62
2024/01/15 08:30:37;;;;;;;6.97;2.30;;;3.80;99.90;;;;;;5041363;28;20052;-61
2024/01/15 08:33:03;;;;;;;8.05;1.52;;;3.60;99.90;;;;;;5036419;28;20050;-64
2024/01/15 08:35:28;;;;;;;4.90;1.52;;;3.60;99.90;;;;;;5040948;28;20037;-64
2024/01/15 08:37:54;;;;;;;6.40;1.20;;;4.10;99.90;;;;;;5039428;28;20068;-62
2024/01/15 08:40:20;;;;;;;5.03;1.77;;;4.90;99.90;;;;;;5043064;28;20032;-62
2024/01/15 08:42:46;;;;;;;8.80;1.60;;;4.90;99.90;;;;;;5044485;28;20037;-64
2024/01/15 08:45:12;;;;;;;5.15;1.63;;;4.80;99.90;;;;;;5043882;28;20162;-62
2024/01/15 08:47:38;;;;;;;4.22;1.27;;;4.80;99.90;;;;;;5037570;28;20114;-64
2024/01/15 08:50:05;;;;;;;4.22;1.67;;;4.70;99.90;;;;;;5035842;28;20030;-63
2024/01/15 08:52:30;;;;;;;9.48;2.50;;;4.50;99.90;;;;;;5036240;28;20037;-64
2024/01/15 08:54:57;;;;;;;4.30;2.13;;;4.40;99.90;;;;;;5041547;28;20031;-63
2024/01/15 08:57:23;;;;;;;9.18;2.50;;;4.30;99.90;;;;;;5038725;28;20037;-64
2024/01/15 08:59:49;;;;;;;7.97;2.17;;;4.20;99.90;;;;;;5039207;28;20029;-64
2024/01/15 09:02:14;;;;;;;9.57;2.38;;;4.20;99.90;;;;;;5040495;28;20040;-64
2024/01/15 09:04:41;;;;;;;3.90;1.50;;;4.20;99.90;;;;;;5002518;28;20045;-63
2024/01/15 09:07:10;;;;;;;1.92;1.10;;;4.30;99.90;;;;;;5001876;28;20694;-64
2024/01/15 09:09:36;;;;;;;8.50;1.60;;;4.30;99.90;;;;;;5003241;28;20018;-64
2024/01/15 09:12:02;;;;;;;2.70;1.20;;;4.20;99.90;;;;;;5005581;28;20084;-63
2024/01/15 09:14:29;;;;;;;5.97;1.50;;;4.30;99.90;;;;;;5005620;28;20057;-64
2024/01/15 09:16:54;;;;;;;8.77;1.40;;;4.30;99.90;;;;;;5005625;28;20482;-64
2024/01/15 09:19:20;;;;;;;6.28;1.50;;;4.30;99.90;;;;;;5005046;28;20028;-64
2024/01/15 09:21:46;;;;;;;4.07;1.20;;;4.10;99.90;;;;;;5005710;28;20072;-64
2024/01/15 09:24:11;;;;;;;3.60;1.33;;;4.00;99.90;;;;;;5002093;28;20037;-63
2024/01/15 09:26:37;;;;;;;4.50;1.33;;;4.10;99.90;;;;;;5002464;28;20091;-63
2024/01/15 09:29:03;;;;;;;3.28;1.33;;;4.20;99.90;;;;;;5000735;28;20037;-63
2024/01/15 09:31:29;;;;;;;6.43;1.35;;;4.20;99.90;;;;;;5001977;28;20026;-63
2024/01/15 09:33:56;;;;;;;8.80;1.40;;;4.30;99.90;;;;;;5003075;28;20551;-63
2024/01/15 09:36:22;;;;;;;2.97;1.60;;;4.50;99.90;;;;;;5004849;28;20504;-63
2024/01/15 09:38:48;;;;;;;2.05;0.75;;;4.50;99.90;;;;;;5004859;28;20108;-63
2024/01/15 09:41:15;;;;;;;4.88;1.20;;;4.50;99.90;;;;;;5005356;28;20521;-63
2024/01/15 09:43:40;;;;;;;3.45;1.40;;;4.50;99.90;;;;;;5003900;28;20045;-63
2024/01/15 09:46:06;;;;;;;6.18;1.25;;;4.40;99.90;;;;;;5001630;28;20045;-62
2024/01/15 09:48:35;;;;;;;3.30;1.25;;;4.20;99.90;;;;;;5002820;28;20541;-63
2024/01/15 09:51:02;;;;;;;3.15;1.40;;;4.10;99.90;;;;;;5003519;28;20049;-63
2024/01/15 09:53:28;;;;;;;4.18;1.05;;;4.00;99.90;;;;;;5004813;28;20034;-63
2024/01/15 09:55:54;;;;;;;4.13;1.48;;;4.10;99.90;;;;;;5001294;28;20089;-63
2024/01/15 09:58:20;;;;;;;16.80;7.47;;;4.30;99.90;;;;;;5004895;28;20113;-63
2024/01/15 10:00:50;;;;;;;5.53;2.75;;;4.40;99.90;;;;;;4997166;28;20750;-63
2024/01/15 10:03:15;;;;;;;4.78;2.10;;;4.40;99.90;;;;;;5003939;28;20685;-63
2024/01/15 10:05:43;;;;;;;7.10;3.92;;;4.40;99.90;;;;;;5004991;28;20084;-64
2024/01/15 10:08:10;;;;;;;5.50;1.65;;;4.30;99.90;;;;;;4997226;28;20045;-63
2024/01/15 10:10:37;;;;;;;2.90;1.30;;;4.30;99.90;;;;;;4998947;28;20038;-64
2024/01/15 10:13:04;;;;;;;4.05;1.52;;;4.30;99.90;;;;;;4995232;28;20040;-64
2024/01/15 10:15:34;;;;;;;4.68;1.33;;;4.20;99.90;;;;;;5001419;28;20030;-64
2024/01/15 10:18:00;;;;;;;6.20;2.05;;;4.30;99.90;;;;;;4996034;28;20103;-62
2024/01/15 10:20:26;;;;;;;2.83;0.88;;;4.30;99.90;;;;;;5001240;28;20763;-63
2024/01/15 10:22:52;;;;;;;4.82;1.88;;;4.40;99.90;;;;;;5001931;28;20030;-63
2024/01/15 10:25:24;;;;;;;2.03;1.10;;;4.50;99.90;;;;;;5005008;28;20064;-63
2024/01/15 10:28:00;;;;;;;2.35;1.27;;;4.40;99.90;;;;;;4998123;28;20042;-64
2024/01/15 10:30:26;;;;;;;6.30;2.53;;;4.50;99.90;;;;;;5002066;28;20034;-64
2024/01/15 10:33:02;;;;;;;5.13;1.95;;;4.60;99.90;;;;;;5003741;28;20036;-63
2024/01/15 10:35:33;;;;;;;6.90;2.42;;;4.70;99.90;;;;;;5000450;28;20034;-63
2024/01/15 10:38:00;;;;;;;3.95;1.95;;;4.70;99.90;;;;;;4987264;28;20133;-62
2024/01/15 10:40:26;;;;;;;6.55;1.60;;;4.70;99.90;;;;;;4996495;28;20036;-63
2024/01/15 10:42:52;;;;;;;5.97;2.25;;;4.70;99.90;;;;;;4998911;28;20493;-63
2024/01/15 10:45:18;;;;;;;5.20;2.20;;;4.70;99.90;;;;;;5000832;28;20509;-63
2024/01/15 10:47:44;;;;;;;3.35;1.50;;;4.50;99.90;;;;;;5003622;28;20135;-63
2024/01/15 10:50:10;;;;;;;5.05;1.48;;;4.60;99.90;;;;;;5004462;28;20045;-63
2024/01/15 10:52:37;;;;;;;1.55;1.00;;;4.70;99.90;;;;;;5004785;28;20041;-63
2024/01/15 10:55:04;;;;;;;3.10;1.08;;;4.70;99.90;;;;;;5008973;28;20030;-63
2024/01/15 10:57:30;;;;;;;3.80;1.63;;;4.60;99.90;;;;;;5001770;28;20108;-62
2024/01/15 10:59:58;;;;;;;2.75;1.40;;;4.60;99.90;;;;;;5007746;28;20045;-63
2024/01/15 11:02:25;;;;;;;4.53;1.80;;;4.60;99.90;;;;;;5003622;28;20026;-63
2024/01/15 11:04:51;;;;;;;5.00;2.00;;;4.50;99.90;;;;;;5007839;28;20034;-62
2024/01/15 11:07:18;;;;;;;7.57;2.38;;;4.50;99.90;;;;;;5003200;28;20096;-60
2024/01/15 11:09:46;;;;;;;6.00;2.47;;;4.50;99.90;;;;;;5004295;28;20375;-63
2024/01/15 11:12:13;;;;;;;7.78;2.75;;;4.30;99.90;;;;;;5009926;28;20514;-62
2024/01/15 11:14:40;;;;;;;3.55;1.45;;;4.50;99.90;;;;;;5004870;28;20030;-63
2024/01/15 11:17:05;;;;;;;5.22;1.75;;;4.70;99.90;;;;;;5008125;28;20048;-64
2024/01/15 11:19:41;;;;;;;3.78;2.13;;;4.90;99.90;;;;;;5004505;28;20653;-64
2024/01/15 11:22:39;;;;;;;14.50;6.22;;;5.00;99.90;;;;;;5006295;28;20042;-62
2024/01/15 11:25:23;;;;;;;1.67;1.17;;;4.90;99.90;;;;;;4996776;28;20034;-63
2024/01/15 11:27:51;;;;;;;3.47;1.92;;;4.80;99.90;;;;;;5001167;28;20042;-63
2024/01/15 11:30:19;;;;;;;8.68;3.33;;;4.60;99.90;;;;;;5003892;28;20033;-63
2024/01/15 11:32:46;;;;;;;4.28;2.22;;;4.40;99.90;;;;;;5005039;28;20037;-63
2024/01/15 11:35:14;;;;;;;5.35;2.30;;;4.40;99.90;;;;;;5007827;28;20041;-63
2024/01/15 11:37:54;;;;;;;2.33;1.23;;;4.40;99.90;;;;;;5007188;28;20041;-63
2024/01/15 11:40:32;;;;;;;2.90;1.75;;;4.50;99.90;;;;;;5004000;28;20056;-62
2024/01/15 11:42:58;;;;;;;3.95;3.03;;;4.30;99.90;;;;;;5002571;28;20123;-63
2024/01/15 11:45:24;;;;;;;5.15;2.78;;;4.30;99.90;;;;;;5005515;28;20069;-63
2024/01/15 11:48:15;;;;;;;15.20;7.57;;;4.50;99.90;;;;;;5006511;28;20890;-63
2024/01/15 11:50:51;;;;;;;9.32;4.25;;;4.40;99.90;;;;;;5001417;28;20041;-63
2024/01/15 11:53:33;;;;;;;18.23;9.20;;;4.30;99.90;;;;;;5005940;28;20080;-64
2024/01/15 11:56:02;;;;;;;10.68;5.63;;;4.10;99.90;;;;;;5006294;28;20456;-63
2024/01/15 11:58:28;;;;;;;10.30;3.70;;;4.10;99.90;;;;;;5006510;28;20034;-63
2024/01/15 12:00:55;;;;;;;7.28;2.90;;;4.20;99.90;;;;;;5006261;28;20042;-60
2024/01/15 12:03:24;;;;;;;2.33;1.20;;;4.20;99.90;;;;;;4999509;28;20038;-63
2024/01/15 12:05:52;;;;;;;4.63;2.60;;;4.30;99.90;;;;;;5005295;28;20033;-61
2024/01/15 12:08:22;;;;;;;2.22;1.80;;;4.40;99.90;;;;;;5004393;28;20026;-63
2024/01/15 12:10:49;;;;;;;2.13;1.65;;;4.50;99.90;;;;;;5004570;28;20060;-63
2024/01/15 12:13:15;;;;;;;1.38;0.95;;;4.60;99.90;;;;;;5006302;28;20025;-63
2024/01/15 12:15:42;;;;;;;2.00;1.27;;;4.60;99.90;;;;;;5006643;28;20026;-63
2024/01/15 12:18:10;;;;;;;3.47;1.42;;;4.60;99.90;;;;;;5005556;28;20080;-61
2024/01/15 12:20:36;;;;;;;2.85;1.63;;;4.70;99.90;;;;;;5002485;28;20044;-62
2024/01/15 12:23:05;;;;;;;2.33;1.20;;;4.70;99.90;;;;;;4999801;28;20103;-63
2024/01/15 12:25:32;;;;;;;1.35;0.90;;;4.70;99.90;;;;;;5006794;28;20037;-64
2024/01/15 12:28:00;;;;;;;3.13;1.42;;;4.50;99.90;;;;;;4999547;28;20068;-63
2024/01/15 12:30:27;;;;;;;3.38;1.17;;;4.40;99.90;;;;;;5002681;28;20413;-63
2024/01/15 12:32:54;;;;;;;1.58;1.10;;;4.40;99.90;;;;;;5004118;28;20049;-64
2024/01/15 12:35:20;;;;;;;2.78;1.20;;;4.30;99.90;;;;;;5006343;28;20030;-62
2024/01/15 12:37:48;;;;;;;1.45;1.00;;;4.30;99.90;;;;;;5005791;28;20065;-63
2024/01/15 12:40:19;;;;;;;2.08;1.20;;;4.40;99.90;;;;;;5002831;28;20030;-64
2024/01/15 12:42:45;;;;;;;3.97;1.67;;;4.30;99.90;;;;;;5005846;28;20073;-64
2024/01/15 12:45:12;;;;;;;1.85;1.40;;;4.40;99.90;;;;;;5003398;28;20112;-64
2024/01/15 12:47:39;;;;;;;2.97;1.67;;;4.50;99.90;;;;;;5001838;28;20042;-64
2024/01/15 12:50:10;;;;;;;3.08;1.65;;;4.60;99.90;;;;;;5004503;28;20032;-63